LDOC weather

Osijek-Čepin Airfield
Čepin, Osijek-Baranja County, Croatia

Public forecast

Using degrees Celsius for public forecast. Weather courtesy of forecast.io.

Closest aviation weather report (METAR) to Osijek-Čepin Airfield

Closest report is Osijek Airport, 8.9 nm (16.5 km) ESE. Retrieved 2020/01/25 01:30 UTC (7 minutes ago):

LDOS 250130Z VRB02KT 0100 FZFG VV001 M05/M06 Q1025

Closest aviation forecast (TAF) to Osijek-Čepin Airfield

Closest forecast is Osijek Airport, 8.9 nm (16.5 km) ESE. Retrieved 2020-01-25 00:00 UTC (2 hours ago):

TAF LDOS 242325Z 2500/2600 VRB02KT 0100 FZFG VV001 TX04/2513Z TNM06/2504Z BECMG 2509/2511 6000 NSW BKN020 PROB30 TEMPO 2509/2511 -FZRA PROB30 TEMPO 2511/2515 4000 -RA BR BKN007 TEMPO 2515/2600 2000 -RA BR BKN005 PROB40 2521/2600 0200 FG